createdAt,value
2019-01-27T00:00:51.109Z,98932.10
2019-01-27T00:03:18.627Z,98921.28
2019-01-27T00:05:46.113Z,98908.00
2019-01-27T00:08:13.880Z,98903.61
2019-01-27T00:10:41.449Z,98898.80
2019-01-27T00:13:08.958Z,98893.05
2019-01-27T00:15:36.481Z,98885.39
2019-01-27T00:18:03.996Z,98879.77
2019-01-27T00:20:31.482Z,98868.88
2019-01-27T00:22:58.994Z,98877.23
2019-01-27T00:25:26.500Z,98865.53
2019-01-27T00:27:54.048Z,98863.83
2019-01-27T00:30:22.213Z,98858.19
2019-01-27T00:32:49.697Z,98849.84
2019-01-27T00:35:17.213Z,98844.09
2019-01-27T00:37:44.903Z,98833.02
2019-01-27T00:40:13.292Z,98828.09
2019-01-27T00:42:41.165Z,98824.73
2019-01-27T00:45:10.457Z,98817.09
2019-01-27T00:47:37.958Z,98808.42
2019-01-27T00:50:06.855Z,98811.95
2019-01-27T00:52:34.547Z,98801.27
2019-01-27T00:55:02.043Z,98801.62
2019-01-27T00:57:29.583Z,98790.39
2019-01-27T00:59:57.085Z,98782.42
2019-01-27T01:02:24.596Z,98780.56
2019-01-27T01:04:52.103Z,98774.66
2019-01-27T01:07:19.617Z,98770.45
2019-01-27T01:09:47.134Z,98764.94
2019-01-27T01:12:14.651Z,98765.14
2019-01-27T01:14:42.136Z,98754.06
2019-01-27T01:17:09.668Z,98750.18
2019-01-27T01:19:37.168Z,98750.84
2019-01-27T01:22:04.691Z,98741.20
2019-01-27T01:24:32.209Z,98741.20
2019-01-27T01:26:59.714Z,98730.33
2019-01-27T01:29:27.240Z,98726.28
2019-01-27T01:31:54.734Z,98730.17
2019-01-27T01:34:22.253Z,98721.13
2019-01-27T01:36:49.777Z,98711.98
2019-01-27T01:39:17.289Z,98707.21
2019-01-27T01:41:44.802Z,98699.09
2019-01-27T01:44:12.334Z,98701.42
2019-01-27T01:46:39.865Z,98695.48
2019-01-27T01:49:07.370Z,98679.67
2019-01-27T01:51:34.880Z,98678.00
2019-01-27T01:54:02.384Z,98673.97
2019-01-27T01:56:29.891Z,98665.11
2019-01-27T01:58:57.422Z,98667.36
2019-01-27T02:01:24.940Z,98659.67
2019-01-27T02:03:52.457Z,98641.03
2019-01-27T02:06:19.970Z,98645.42
2019-01-27T02:08:47.495Z,98644.06
2019-01-27T02:11:14.990Z,98638.00
2019-01-27T02:13:42.536Z,98620.44
2019-01-27T02:16:10.031Z,98616.55
2019-01-27T02:18:37.534Z,98616.05
2019-01-27T02:21:05.037Z,98606.19
2019-01-27T02:23:32.570Z,98597.33
2019-01-27T02:26:00.102Z,98588.71
2019-01-27T02:28:27.602Z,98580.91
2019-01-27T02:30:55.109Z,98578.89
2019-01-27T02:33:22.633Z,98551.05
2019-01-27T02:35:50.126Z,98555.78
2019-01-27T02:38:17.656Z,98554.73
2019-01-27T02:40:45.168Z,98547.11
2019-01-27T02:43:12.678Z,98533.32
2019-01-27T02:45:40.192Z,98535.39
2019-01-27T02:48:07.731Z,98540.63
2019-01-27T02:50:35.245Z,98545.80
2019-01-27T02:53:02.759Z,98532.75
2019-01-27T02:55:30.269Z,98526.58
2019-01-27T02:57:57.768Z,98524.52
2019-01-27T03:00:25.274Z,98513.38
2019-01-27T03:02:52.803Z,98520.72
2019-01-27T03:05:34.206Z,98503.66
2019-01-27T03:08:01.725Z,98496.36
2019-01-27T03:10:29.232Z,98488.71
2019-01-27T03:12:56.751Z,98478.03
2019-01-27T03:15:24.274Z,98470.08
2019-01-27T03:17:51.794Z,98467.36
2019-01-27T03:20:19.331Z,98470.22
2019-01-27T03:22:46.853Z,98457.65
2019-01-27T03:25:15.235Z,98461.42
2019-01-27T03:27:42.737Z,98466.15
2019-01-27T03:30:15.827Z,98454.31
2019-01-27T03:32:43.380Z,98451.91
2019-01-27T03:35:10.931Z,98447.94
2019-01-27T03:37:38.450Z,98440.72
2019-01-27T03:40:07.567Z,98429.91
2019-01-27T03:42:35.088Z,98426.59
2019-01-27T03:45:02.621Z,98420.64
2019-01-27T03:47:30.151Z,98410.82
2019-01-27T03:49:57.670Z,98409.97
2019-01-27T03:52:25.195Z,98411.84
2019-01-27T03:54:52.695Z,98406.45
2019-01-27T03:57:20.225Z,98389.78
2019-01-27T03:59:47.761Z,98388.73
2019-01-27T04:02:15.245Z,98378.26
2019-01-27T04:04:42.765Z,98373.84
2019-01-27T04:07:10.268Z,98365.21
2019-01-27T04:09:37.796Z,98365.69
2019-01-27T04:12:05.291Z,98365.32
2019-01-27T04:14:32.822Z,98362.49
2019-01-27T04:17:00.334Z,98362.49
2019-01-27T04:19:27.840Z,98358.52
2019-01-27T04:21:55.376Z,98363.11
2019-01-27T04:24:22.887Z,98361.23
2019-01-27T04:26:50.411Z,98350.06
2019-01-27T04:29:17.999Z,98354.45
2019-01-27T04:31:45.515Z,98348.36
2019-01-27T04:34:13.009Z,98344.08
2019-01-27T04:36:40.515Z,98331.71
2019-01-27T04:39:08.201Z,98328.31
2019-01-27T04:41:35.715Z,98322.20
2019-01-27T04:44:03.227Z,98322.20
2019-01-27T04:46:30.733Z,98324.61
2019-01-27T04:48:58.253Z,98317.10
2019-01-27T04:51:25.749Z,98315.03
2019-01-27T04:53:53.367Z,98305.04
2019-01-27T04:56:20.857Z,98314.95
2019-01-27T04:58:48.396Z,98302.86
2019-01-27T05:01:15.923Z,98301.50
2019-01-27T05:03:50.753Z,98304.53
2019-01-27T05:06:18.271Z,98303.03
2019-01-27T05:08:45.765Z,98296.44
2019-01-27T05:11:13.257Z,98292.00
2019-01-27T05:13:40.769Z,98283.50
2019-01-27T05:16:08.295Z,98267.91
2019-01-27T05:18:35.796Z,98255.67
2019-01-27T05:21:03.325Z,98260.80
2019-01-27T05:23:30.816Z,98254.21
2019-01-27T05:25:58.338Z,98241.27
2019-01-27T05:28:25.839Z,98254.96
2019-01-27T05:30:53.374Z,98247.86
2019-01-27T05:33:20.914Z,98243.78
2019-01-27T05:35:48.506Z,98242.42
2019-01-27T05:38:15.998Z,98241.78
2019-01-27T05:40:43.530Z,98239.77
2019-01-27T05:43:11.045Z,98233.11
2019-01-27T05:45:38.555Z,98233.42
2019-01-27T05:48:06.127Z,98230.91
2019-01-27T05:50:33.655Z,98215.31
2019-01-27T05:53:01.149Z,98217.63
2019-01-27T05:55:28.667Z,98217.12
2019-01-27T05:57:56.199Z,98210.83
2019-01-27T06:00:40.629Z,98207.16
2019-01-27T06:03:08.159Z,98201.22
2019-01-27T06:05:35.680Z,98206.76
2019-01-27T06:08:03.229Z,98196.63
2019-01-27T06:10:30.709Z,98198.30
2019-01-27T06:12:58.221Z,98187.63
2019-01-27T06:15:25.726Z,98191.20
2019-01-27T06:17:53.215Z,98189.19
2019-01-27T06:20:20.742Z,98186.17
2019-01-27T06:22:48.275Z,98199.01
2019-01-27T06:25:16.480Z,98170.07
2019-01-27T06:27:44.133Z,98177.47
2019-01-27T06:30:18.920Z,98170.68
2019-01-27T06:32:48.050Z,98174.55
2019-01-27T06:35:15.561Z,98168.30
2019-01-27T06:37:43.088Z,98172.58
2019-01-27T06:40:10.580Z,98166.30
2019-01-27T06:42:38.109Z,98174.96
2019-01-27T06:45:05.986Z,98172.17
2019-01-27T06:47:33.503Z,98171.84
2019-01-27T06:50:00.989Z,98155.42
2019-01-27T06:52:28.511Z,98163.58
2019-01-27T06:54:56.206Z,98159.41
2019-01-27T06:57:23.730Z,98154.92
2019-01-27T06:59:52.883Z,98150.50
2019-01-27T07:02:22.025Z,98140.69
2019-01-27T07:04:51.211Z,98145.06
2019-01-27T07:07:20.357Z,98143.41
2019-01-27T07:10:01.496Z,98136.30
2019-01-27T07:12:39.839Z,98132.84
2019-01-27T07:15:19.399Z,98139.63
2019-01-27T07:17:51.320Z,98130.46
2019-01-27T07:20:32.335Z,98145.06
2019-01-27T07:23:04.497Z,98125.02
2019-01-27T07:25:48.935Z,98125.54
2019-01-27T07:28:20.791Z,98127.95
2019-01-27T07:31:06.273Z,98127.61
2019-01-27T07:33:44.388Z,98119.45
2019-01-27T07:36:13.545Z,98121.87
2019-01-27T07:38:42.687Z,98117.18
2019-01-27T07:41:14.732Z,98115.72
2019-01-27T07:43:46.576Z,98112.05
2019-01-27T07:46:15.712Z,98117.89
2019-01-27T07:48:50.949Z,98111.52
2019-01-27T07:51:20.096Z,98110.28
2019-01-27T07:54:01.306Z,98100.98
2019-01-27T07:56:30.467Z,98097.62
2019-01-27T07:59:08.584Z,98089.67
2019-01-27T08:01:40.654Z,98085.49
2019-01-27T08:04:09.801Z,98079.96
2019-01-27T08:06:44.802Z,98078.39
2019-01-27T08:09:16.613Z,98074.83
2019-01-27T08:11:57.740Z,98068.38
2019-01-27T08:14:26.892Z,98070.14
2019-01-27T08:16:56.051Z,98067.73
2019-01-27T08:19:25.222Z,98071.50
2019-01-27T08:22:00.371Z,98059.27
2019-01-27T08:24:35.575Z,98061.78
2019-01-27T08:27:16.777Z,98070.14
2019-01-27T08:29:54.452Z,98061.99
2019-01-27T08:32:39.824Z,98061.45
2019-01-27T08:35:09.867Z,98055.92
2019-01-27T08:37:48.156Z,98054.05
2019-01-27T08:40:17.696Z,98049.22
2019-01-27T08:42:58.840Z,98045.56
2019-01-27T08:45:27.972Z,98042.97
2019-01-27T08:47:55.500Z,98044.20
2019-01-27T08:50:23.012Z,98040.33
2019-01-27T08:52:50.506Z,98039.31
2019-01-27T08:55:18.019Z,98031.77
2019-01-27T08:57:45.537Z,98026.86
2019-01-27T09:00:14.646Z,98027.08
2019-01-27T09:02:46.704Z,98024.67
2019-01-27T09:05:15.839Z,98021.75
2019-01-27T09:07:50.766Z,98021.66
2019-01-27T09:10:29.006Z,98018.50
2019-01-27T09:13:11.171Z,98011.70
2019-01-27T09:15:54.248Z,98013.67
2019-01-27T09:18:26.090Z,98013.06
2019-01-27T09:21:01.012Z,98004.07
2019-01-27T09:23:30.164Z,98013.16
2019-01-27T09:25:59.293Z,98015.58
2019-01-27T09:28:28.462Z,98006.78
2019-01-27T09:30:57.599Z,98006.15
2019-01-27T09:33:32.679Z,98001.66
2019-01-27T09:36:04.891Z,97999.78
2019-01-27T09:38:34.049Z,98003.86
2019-01-27T09:41:11.959Z,98003.99
2019-01-27T09:43:41.119Z,98003.02
2019-01-27T09:46:13.368Z,97996.22
2019-01-27T09:48:45.185Z,97992.48
2019-01-27T09:51:14.322Z,97988.83
2019-01-27T09:53:49.372Z,97995.92
2019-01-27T09:56:21.233Z,98003.56
2019-01-27T09:58:50.388Z,98004.92
2019-01-27T10:01:25.152Z,98010.56
2019-01-27T10:04:03.178Z,98017.66
2019-01-27T10:06:32.332Z,98014.63
2019-01-27T10:09:10.671Z,98008.26
2019-01-27T10:11:56.010Z,98005.64
2019-01-27T10:14:25.166Z,97996.64
2019-01-27T10:17:03.330Z,97995.92
2019-01-27T10:19:32.530Z,97996.03
2019-01-27T10:22:01.681Z,97990.70
2019-01-27T10:24:36.873Z,97986.31
2019-01-27T10:27:12.194Z,97980.03
2019-01-27T10:29:53.660Z,97981.70
2019-01-27T10:32:25.506Z,97981.70
2019-01-27T10:34:54.683Z,97978.47
2019-01-27T10:37:39.930Z,97978.47
2019-01-27T10:40:10.772Z,97989.55
2019-01-27T10:42:40.102Z,97983.47
2019-01-27T10:45:09.944Z,97972.09
2019-01-27T10:47:48.362Z,97970.22
2019-01-27T10:50:17.526Z,97967.60
2019-01-27T10:52:55.876Z,97962.89
2019-01-27T10:55:31.219Z,97958.30
2019-01-27T10:58:12.626Z,97959.36
2019-01-27T11:01:00.340Z,97948.08
2019-01-27T11:03:41.486Z,97945.78
2019-01-27T11:06:22.553Z,97939.28
2019-01-27T11:08:57.530Z,97940.34
2019-01-27T11:11:29.643Z,97938.23
2019-01-27T11:14:01.833Z,97933.85
2019-01-27T11:16:31.012Z,97930.50
2019-01-27T11:19:00.160Z,97928.12
2019-01-27T11:21:32.098Z,97921.33
2019-01-27T11:24:07.229Z,97913.69
2019-01-27T11:26:36.398Z,97911.48
2019-01-27T11:29:11.416Z,97900.61
2019-01-27T11:31:43.726Z,97891.75
2019-01-27T11:34:15.551Z,97884.86
2019-01-27T11:36:47.433Z,97876.50
2019-01-27T11:39:28.701Z,97882.87
2019-01-27T11:41:57.823Z,97873.16
2019-01-27T11:44:43.355Z,97865.84
2019-01-27T11:47:12.537Z,97862.08
2019-01-27T11:49:41.691Z,97854.34
2019-01-27T11:52:15.480Z,97855.28
2019-01-27T11:54:38.645Z,97849.00
2019-01-27T11:57:06.148Z,97848.19
2019-01-27T11:59:33.673Z,97849.00
2019-01-27T12:02:01.203Z,97839.62
2019-01-27T12:04:28.700Z,97836.05
2019-01-27T12:06:56.240Z,97832.83
2019-01-27T12:09:23.739Z,97828.03
2019-01-27T12:11:51.241Z,97824.98
2019-01-27T12:14:18.765Z,97826.55
2019-01-27T12:16:46.270Z,97820.30
2019-01-27T12:19:13.793Z,97828.45
2019-01-27T12:21:41.307Z,97819.76
2019-01-27T12:24:08.839Z,97807.74
2019-01-27T12:26:36.387Z,97813.52
2019-01-27T12:29:04.019Z,97805.66
2019-01-27T12:31:31.519Z,97809.95
2019-01-27T12:33:59.051Z,97797.22
2019-01-27T12:36:26.553Z,97799.39
2019-01-27T12:38:54.057Z,97797.22
2019-01-27T12:41:21.585Z,97795.22
2019-01-27T12:43:49.083Z,97791.99
2019-01-27T12:46:16.614Z,97785.72
2019-01-27T12:48:44.127Z,97778.92
2019-01-27T12:51:11.723Z,97786.34
2019-01-27T12:53:39.232Z,97782.70
2019-01-27T12:56:06.778Z,97787.38
2019-01-27T12:58:34.290Z,97776.72
2019-01-27T13:01:01.781Z,97784.36
2019-01-27T13:03:29.302Z,97781.34
2019-01-27T13:05:56.841Z,97777.27
2019-01-27T13:08:25.894Z,97778.41
2019-01-27T13:10:53.670Z,97769.42
2019-01-27T13:13:21.191Z,97773.80
2019-01-27T13:15:48.687Z,97771.29
2019-01-27T13:18:16.187Z,97760.64
2019-01-27T13:20:43.740Z,97762.63
2019-01-27T13:23:11.249Z,97759.41
2019-01-27T13:25:38.747Z,97754.48
2019-01-27T13:28:06.283Z,97752.83
2019-01-27T13:30:33.800Z,97742.98
2019-01-27T13:33:03.246Z,97748.75
2019-01-27T13:35:30.573Z,97745.70
2019-01-27T13:37:58.099Z,97742.98
2019-01-27T13:40:25.601Z,97748.12
2019-01-27T13:42:53.141Z,97742.98
2019-01-27T13:45:21.736Z,97741.33
2019-01-27T13:47:49.261Z,97739.24
2019-01-27T13:50:17.036Z,97742.98
2019-01-27T13:52:44.572Z,97737.55
2019-01-27T13:55:13.731Z,97734.53
2019-01-27T13:57:41.276Z,97739.13
2019-01-27T14:00:10.398Z,97734.53
2019-01-27T14:02:37.919Z,97738.09
2019-01-27T14:05:06.898Z,97740.91
2019-01-27T14:07:34.406Z,97744.67
2019-01-27T14:10:01.919Z,97735.89
2019-01-27T14:12:29.487Z,97738.91
2019-01-27T14:14:57.087Z,97734.02
2019-01-27T14:17:24.579Z,97728.47
2019-01-27T14:19:52.096Z,97725.88
2019-01-27T14:22:19.617Z,97722.31
2019-01-27T14:24:47.131Z,97726.90
2019-01-27T14:27:14.621Z,97730.13
2019-01-27T14:29:42.145Z,97727.41
2019-01-27T14:32:09.726Z,97730.55
2019-01-27T14:34:37.250Z,97728.05
2019-01-27T14:37:04.768Z,97724.09
2019-01-27T14:39:32.292Z,97722.73
2019-01-27T14:41:59.806Z,97720.23
2019-01-27T14:44:27.318Z,97714.69
2019-01-27T14:46:54.847Z,97716.98
2019-01-27T14:49:22.373Z,97719.48
2019-01-27T14:51:49.905Z,97717.41
2019-01-27T14:54:17.429Z,97718.34
2019-01-27T14:56:44.931Z,97717.52
2019-01-27T14:59:12.484Z,97718.03
2019-01-27T15:01:39.986Z,97722.73
2019-01-27T15:04:07.672Z,97716.16
2019-01-27T15:06:35.228Z,97723.77
2019-01-27T15:09:03.203Z,97712.61
2019-01-27T15:11:30.713Z,97713.03
2019-01-27T15:13:58.238Z,97714.69
2019-01-27T15:16:25.765Z,97712.81
2019-01-27T15:18:53.286Z,97710.31
2019-01-27T15:21:20.814Z,97708.74
2019-01-27T15:23:48.318Z,97719.09
2019-01-27T15:26:15.843Z,97706.87
2019-01-27T15:28:43.338Z,97708.95
2019-01-27T15:31:10.858Z,97710.53
2019-01-27T15:33:38.395Z,97712.52
2019-01-27T15:36:05.944Z,97713.66
2019-01-27T15:38:33.448Z,97713.03
2019-01-27T15:41:00.976Z,97713.33
2019-01-27T15:43:28.499Z,97716.38
2019-01-27T15:45:56.016Z,97711.97
2019-01-27T15:48:23.525Z,97714.69
2019-01-27T15:50:51.033Z,97710.10
2019-01-27T15:53:18.552Z,97699.87
2019-01-27T15:55:46.074Z,97703.52
2019-01-27T15:58:13.609Z,97704.03
2019-01-27T16:00:41.096Z,97702.89
2019-01-27T16:03:08.639Z,97711.38
2019-01-27T16:05:36.129Z,97707.30
2019-01-27T16:08:03.802Z,97709.68
2019-01-27T16:10:31.323Z,97705.94
2019-01-27T16:12:58.835Z,97707.90
2019-01-27T16:15:27.353Z,97711.38
2019-01-27T16:17:54.854Z,97715.45
2019-01-27T16:20:22.350Z,97715.95
2019-01-27T16:22:54.492Z,97709.68
2019-01-27T16:25:22.027Z,97713.45
2019-01-27T16:27:49.512Z,97722.23
2019-01-27T16:30:19.455Z,97715.66
2019-01-27T16:32:46.936Z,97712.73
2019-01-27T16:35:14.443Z,97707.81
2019-01-27T16:37:41.963Z,97713.24
2019-01-27T16:40:11.251Z,97718.59
2019-01-27T16:42:38.761Z,97717.83
2019-01-27T16:45:07.892Z,97713.16
2019-01-27T16:47:35.417Z,97713.76
2019-01-27T16:50:02.931Z,97714.30
2019-01-27T16:52:30.446Z,97712.40
2019-01-27T16:54:57.954Z,97713.45
2019-01-27T16:57:25.516Z,97719.40
2019-01-27T16:59:53.007Z,97714.52
2019-01-27T17:02:20.502Z,97710.53
2019-01-27T17:04:48.012Z,97708.11
2019-01-27T17:07:15.514Z,97707.18
2019-01-27T17:09:43.048Z,97710.23
2019-01-27T17:12:10.556Z,97709.08
2019-01-27T17:14:38.086Z,97707.73
2019-01-27T17:17:05.601Z,97711.58
2019-01-27T17:19:33.122Z,97706.37
2019-01-27T17:22:00.672Z,97703.95
2019-01-27T17:24:28.295Z,97711.80
2019-01-27T17:26:55.965Z,97703.11
2019-01-27T17:29:23.562Z,97706.58
2019-01-27T17:31:51.060Z,97711.47
2019-01-27T17:34:18.584Z,97710.44
2019-01-27T17:36:46.094Z,97710.44
2019-01-27T17:39:13.668Z,97707.39
2019-01-27T17:41:41.169Z,97706.58
2019-01-27T17:44:08.696Z,97707.09
2019-01-27T17:46:36.191Z,97708.45
2019-01-27T17:49:03.809Z,97704.89
2019-01-27T17:51:31.296Z,97715.75
2019-01-27T17:53:59.224Z,97713.88
2019-01-27T17:56:26.787Z,97719.09
2019-01-27T17:58:58.731Z,97720.16
2019-01-27T18:01:44.504Z,97726.73
2019-01-27T18:04:13.652Z,97725.05
2019-01-27T18:06:45.908Z,97733.19
2019-01-27T18:09:15.061Z,97746.77
2019-01-27T18:11:56.431Z,97742.69
2019-01-27T18:14:25.551Z,97752.20
2019-01-27T18:16:53.100Z,97750.84
2019-01-27T18:19:20.615Z,97758.17
2019-01-27T18:21:48.117Z,97761.70
2019-01-27T18:24:15.700Z,97769.03
2019-01-27T18:26:43.285Z,97782.28
2019-01-27T18:29:10.880Z,97784.48
2019-01-27T18:31:38.435Z,97797.00
2019-01-27T18:34:05.952Z,97802.77
2019-01-27T18:36:33.442Z,97798.05
2019-01-27T18:39:00.991Z,97817.70
2019-01-27T18:41:28.490Z,97831.28
2019-01-27T18:43:56.000Z,97844.52
2019-01-27T18:46:23.526Z,97841.71
2019-01-27T18:48:51.049Z,97846.63
2019-01-27T18:51:18.623Z,97853.20
2019-01-27T18:53:47.779Z,97853.52
2019-01-27T18:56:16.942Z,97863.11
2019-01-27T18:58:46.112Z,97873.03
2019-01-27T19:01:17.972Z,97877.01
2019-01-27T19:03:53.113Z,97881.72
2019-01-27T19:06:27.878Z,97882.33
2019-01-27T19:08:57.049Z,97891.53
2019-01-27T19:11:26.187Z,97889.66
2019-01-27T19:14:01.372Z,97891.02
2019-01-27T19:16:30.526Z,97892.67
2019-01-27T19:18:59.704Z,97901.55
2019-01-27T19:21:34.616Z,97904.59
2019-01-27T19:24:15.737Z,97915.77
2019-01-27T19:27:01.361Z,97918.17
2019-01-27T19:29:48.868Z,97935.62
2019-01-27T19:32:23.891Z,97945.63
2019-01-27T19:34:55.510Z,97954.62
2019-01-27T19:37:27.662Z,97955.98
2019-01-27T19:40:02.667Z,97966.51
2019-01-27T19:42:37.509Z,97974.14
2019-01-27T19:45:08.554Z,97983.66
2019-01-27T19:47:46.594Z,97992.95
2019-01-27T19:50:18.739Z,98000.89
2019-01-27T19:52:47.876Z,98016.55
2019-01-27T19:55:19.985Z,98019.59
2019-01-27T19:58:05.473Z,98027.09
2019-01-27T20:00:37.345Z,98035.69
2019-01-27T20:03:15.734Z,98047.27
2019-01-27T20:05:44.905Z,98055.84
2019-01-27T20:08:16.972Z,98062.41
2019-01-27T20:10:46.101Z,98064.41
2019-01-27T20:13:18.006Z,98086.23
2019-01-27T20:15:52.943Z,98087.16
2019-01-27T20:18:24.788Z,98097.30
2019-01-27T20:20:56.632Z,98109.83
2019-01-27T20:23:25.852Z,98114.31
2019-01-27T20:25:57.906Z,98117.87
2019-01-27T20:28:27.059Z,98116.01
2019-01-27T20:30:59.125Z,98122.45
2019-01-27T20:33:28.249Z,98119.95
2019-01-27T20:35:57.405Z,98131.76
2019-01-27T20:38:26.570Z,98141.67
2019-01-27T20:41:11.927Z,98150.27
2019-01-27T20:43:50.038Z,98156.75
2019-01-27T20:46:19.193Z,98150.47
2019-01-27T20:48:51.331Z,98159.97
2019-01-27T20:51:23.456Z,98160.81
2019-01-27T20:54:09.056Z,98171.88
2019-01-27T20:56:38.207Z,98176.57
2019-01-27T20:59:19.250Z,98184.41
2019-01-27T21:01:50.868Z,98189.34
2019-01-27T21:04:22.739Z,98197.14
2019-01-27T21:06:51.914Z,98199.04
2019-01-27T21:09:23.795Z,98195.27
2019-01-27T21:12:09.278Z,98202.37
2019-01-27T21:14:38.452Z,98205.73
2019-01-27T21:17:10.102Z,98219.52
2019-01-27T21:19:39.266Z,98218.36
2019-01-27T21:22:06.812Z,98217.85
2019-01-27T21:24:34.346Z,98225.35
2019-01-27T21:27:06.298Z,98228.06
2019-01-27T21:29:31.083Z,98230.27
2019-01-27T21:31:58.592Z,98233.19
2019-01-27T21:34:26.114Z,98247.28
2019-01-27T21:36:53.649Z,98245.72
2019-01-27T21:39:21.148Z,98238.94
2019-01-27T21:41:48.645Z,98242.80
2019-01-27T21:44:16.168Z,98249.80
2019-01-27T21:46:43.662Z,98255.53
2019-01-27T21:49:11.170Z,98252.91
2019-01-27T21:51:38.690Z,98261.70
2019-01-27T21:54:06.223Z,98267.45
2019-01-27T21:56:33.735Z,98266.80
2019-01-27T21:59:01.294Z,98279.67
2019-01-27T22:01:28.796Z,98282.58
2019-01-27T22:03:56.296Z,98282.89
2019-01-27T22:06:23.829Z,98287.51
2019-01-27T22:08:51.351Z,98295.31
2019-01-27T22:11:18.887Z,98297.21
2019-01-27T22:13:46.419Z,98306.17
2019-01-27T22:16:13.917Z,98311.61
2019-01-27T22:18:41.437Z,98315.38
2019-01-27T22:21:08.933Z,98325.92
2019-01-27T22:23:36.443Z,98318.40
2019-01-27T22:26:04.039Z,98324.17
2019-01-27T22:28:31.539Z,98327.91
2019-01-27T22:30:59.242Z,98322.67
2019-01-27T22:33:26.743Z,98321.31
2019-01-27T22:35:54.274Z,98321.96
2019-01-27T22:38:21.796Z,98319.45
2019-01-27T22:40:49.283Z,98324.22
2019-01-27T22:43:16.812Z,98327.39
2019-01-27T22:45:44.329Z,98334.69
2019-01-27T22:48:11.825Z,98331.47
2019-01-27T22:50:39.339Z,98322.16
2019-01-27T22:53:06.878Z,98331.36
2019-01-27T22:55:34.462Z,98336.79
2019-01-27T22:58:01.983Z,98336.98
2019-01-27T23:00:35.242Z,98345.13
2019-01-27T23:03:02.759Z,98352.42
2019-01-27T23:05:30.268Z,98353.90
2019-01-27T23:07:57.788Z,98358.91
2019-01-27T23:10:25.389Z,98365.50
2019-01-27T23:12:52.894Z,98365.16
2019-01-27T23:15:20.428Z,98361.23
2019-01-27T23:17:47.918Z,98372.99
2019-01-27T23:20:15.436Z,98372.48
2019-01-27T23:22:42.960Z,98373.89
2019-01-27T23:25:10.475Z,98377.92
2019-01-27T23:27:37.982Z,98382.50
2019-01-27T23:30:05.954Z,98387.47
2019-01-27T23:32:33.484Z,98382.89
2019-01-27T23:35:00.985Z,98378.28
2019-01-27T23:37:28.476Z,98383.70
2019-01-27T23:39:56.001Z,98384.75
2019-01-27T23:42:23.511Z,98383.70
2019-01-27T23:44:51.005Z,98386.77
2019-01-27T23:47:18.500Z,98387.08
2019-01-27T23:49:46.017Z,98392.90
2019-01-27T23:52:13.523Z,98392.70
2019-01-27T23:54:41.050Z,98397.28
2019-01-27T23:57:08.540Z,98400.20
2019-01-27T23:59:36.127Z,98399.69
